Latest Weather Observations for Launceston Airport

IDT60801

Issued at 6:31 am EDT Thursday 18 December 2014 (issued every 30 minutes, with the page automatically refreshed every 10 minutes)

About weather observations | Map of weather stations | Latest weather observations for TAS | Other Formats
Station Details ID: 091311 Name: LAUNCESTON AIRPORT Lat: -41.55 Lon: 147.21 Height: 166.9 m
Data from the previous 72 hours. | See also: Recent months at Launceston Airport
Date/Time
EDT
Temp
°C
App
Temp
°C
Dew
Point
Rel
Hum
%
Delta-T
°C
Wind Press
QNH
hPa
Press
MSL
hPa
Rain
since 9 am
mm
Dir
 
Spd
km/h
Gust
km/h
Spd
kts
Gust
kts
18/06:30am 9.4 7.5 6.7 83 1.3 NNW 6 7 3 4 1005.5 1005.3 0.2
18/05:30am 7.2 3.7 5.5 89 0.8 NNW 13 15 7 8 1006.1 1005.8 0.2
18/05:00am 5.5 2.0 3.3 86 0.9 NNW 11 13 6 7 1006.0 1005.7 0.2
18/04:30am 5.9 1.7 3.6 85 1.0 NNW 15 17 8 9 1005.9 1005.6 0.2
18/04:00am 6.4 1.8 3.9 84 1.1 NW 17 20 9 11 1005.8 1005.5 0.2
18/03:30am 5.7 1.1 3.7 87 0.8 NW 17 19 9 10 1005.7 1005.4 0.2
18/02:30am 6.4 2.2 3.7 83 1.2 NNW 15 17 8 9 1005.5 1005.3 0.2
18/02:00am 7.9 5.0 4.7 80 1.4 NW 9 13 5 7 1005.7 1005.4 0.2
18/01:30am 8.1 5.8 4.9 80 1.4 N 6 9 3 5 1005.9 1005.6 0.2
18/01:00am 7.0 3.6 4.0 81 1.3 NNW 11 11 6 6 1006.0 1005.7 0.2
18/12:30am 6.9 3.1 4.0 82 1.3 NNW 13 15 7 8 1006.2 1005.9 0.2
 
Date/Time
EDT
Temp
°C
App
Temp
°C
Dew
Point
Rel
Hum
%
Delta-T
°C
Wind Press
QNH
hPa
Press
MSL
hPa
Rain
since 9 am
mm
Dir
 
Spd
km/h
Gust
km/h
Spd
kts
Gust
kts
17/11:30pm 8.6 5.2 5.7 82 1.3 NNW 13 15 7 8 1006.5 1006.2 0.2
17/11:00pm 8.7 5.5 5.1 78 1.6 NNW 11 17 6 9 1006.7 1006.4 0.2
17/10:30pm 9.5 5.6 5.3 75 1.9 NNW 15 17 8 9 1007.0 1006.7 0.2
17/10:00pm 10.0 6.4 5.2 72 2.2 NNW 13 15 7 8 1007.0 1006.7 0.2
17/09:30pm 10.7 7.2 5.5 70 2.4 NNW 13 17 7 9 1006.7 1006.4 0.2
17/09:00pm 12.2 8.4 5.8 65 3.0 NNW 15 19 8 10 1006.4 1006.1 0.2
17/08:30pm 13.0 8.4 5.4 60 3.6 NNW 19 28 10 15 1006.3 1006.0 0.2
17/08:00pm 14.2 8.6 5.3 55 4.2 NNW 24 33 13 18 1006.1 1005.8 0.2
17/07:30pm 14.4 9.6 5.5 55 4.2 NNW 20 28 11 15 1005.8 1005.5 0.2
17/07:00pm 15.3 8.1 5.2 51 4.8 NW 32 39 17 21 1005.3 1005.1 0.2
17/06:30pm 16.1 8.9 5.1 48 5.3 NNW 32 41 17 22 1004.8 1004.6 0.2
17/06:00pm 16.3 10.3 5.3 48 5.3 NNW 26 35 14 19 1004.7 1004.5 0.2
17/05:30pm 17.5 11.6 5.8 46 5.7 NNW 26 33 14 18 1004.7 1004.5 0.2
17/05:00pm 15.6 8.2 5.2 50 5.0 NNW 33 43 18 23 1004.7 1004.5 0.2
17/04:30pm 16.6 10.0 6.1 50 5.2 NNW 30 35 16 19 1004.7 1004.5 0.2
17/04:00pm 16.8 9.6 5.1 46 5.7 NNW 32 43 17 23 1004.8 1004.6 0.2
17/03:30pm 17.6 11.1 4.9 43 6.1 NNW 28 37 15 20 1004.8 1004.6 0.2
17/03:00pm 17.5 11.2 5.8 46 5.8 NNW 28 39 15 21 1004.7 1004.5 0.2
17/02:30pm 17.7 11.3 5.3 44 6.0 NNW 28 43 15 23 1004.6 1004.4 0.2
17/02:00pm 19.0 12.8 2.4 33 7.7 NW 24 37 13 20 1004.6 1004.4 0.2
17/01:30pm 18.0 11.6 1.1 32 7.6 WNW 24 35 13 19 1004.8 1004.6 0.2
17/01:00pm 17.4 10.7 1.4 34 7.2 WNW 26 37 14 20 1004.8 1004.6 0.2
17/12:30pm 18.2 13.2 4.4 40 6.6 WNW 20 32 11 17 1004.9 1004.7 0.2
17/12:00pm 15.6 10.8 2.7 42 5.9 WNW 17 24 9 13 1004.7 1004.5 0.2
17/11:30am 15.1 10.7 2.6 43 5.6 WNW 15 24 8 13 1004.6 1004.4 0.2
17/11:00am 15.3 10.4 4.9 50 5.0 NW 20 33 11 18 1004.4 1004.2 0.2
17/10:30am 14.7 9.2 0.9 39 6.0 W 19 28 10 15 1004.3 1004.1 0.2
17/10:00am 13.4 9.5 1.4 44 5.2 WSW 11 26 6 14 1004.2 1004.0 0.2
17/09:30am 14.3 10.4 3.2 47 5.0 WNW 13 20 7 11 1003.9 1003.7 0.0
17/09:00am 13.5 9.2 0.9 42 5.4 NW 13 19 7 10 1003.5 1003.3 0.6
17/08:30am 12.5 7.4 2.9 52 4.3 WNW 19 24 10 13 1003.5 1003.3 0.6
17/08:00am 12.3 7.8 4.3 58 3.7 WNW 17 24 9 13 1003.1 1002.9 0.6
17/07:30am 10.8 6.4 4.9 67 2.7 N 17 20 9 11 1002.6 1002.3 0.6
17/07:00am 9.6 6.0 5.2 74 2.0 N 13 17 7 9 1001.8 1001.5 0.6
17/06:30am 7.9 4.9 4.1 77 1.7 N 9 13 5 7 1001.0 1000.7 0.6
17/06:00am 7.6 3.3 3.1 73 1.9 WNW 15 17 8 9 1000.4 1000.1 0.6
17/05:30am 7.9 3.2 3.0 71 2.1 WNW 17 20 9 11 999.8 999.5 0.6
17/05:00am 7.1 3.4 2.2 71 2.1 NW 11 15 6 8 999.2 999.0 0.6
17/04:30am 6.7 2.5 4.0 83 1.2 NW 15 19 8 10 998.6 998.4 0.6
17/04:00am 6.7 2.5 4.0 83 1.2 NNW 15 17 8 9 998.3 998.1 0.6
17/03:30am 7.4 3.0 5.0 85 1.1 NW 17 20 9 11 997.7 997.5 0.6
17/03:00am 7.5 3.4 4.6 82 1.3 NNW 15 17 8 9 997.3 997.0 0.6
17/02:30am 9.8 5.0 5.8 76 1.9 NW 20 26 11 14 997.1 996.8 0.6
17/02:00am 9.6 4.8 5.8 77 1.8 NW 20 24 11 13 996.7 996.4 0.6
17/01:30am 8.9 4.7 5.5 79 1.6 NW 17 20 9 11 996.5 996.2 0.6
17/01:00am 10.0 5.4 5.6 74 2.0 NW 19 24 10 13 996.1 995.8 0.6
17/12:30am 10.4 4.4 5.2 70 2.4 NW 26 32 14 17 995.5 995.2 0.6
17/12:00am 11.1 5.6 5.8 70 2.5 NW 24 33 13 18 995.1 994.8 0.6
 
Date/Time
EDT
Temp
°C
App
Temp
°C
Dew
Point
Rel
Hum
%
Delta-T
°C
Wind Press
QNH
hPa
Press
MSL
hPa
Rain
since 9 am
mm
Dir
 
Spd
km/h
Gust
km/h
Spd
kts
Gust
kts
16/11:30pm 11.2 6.3 6.7 74 2.1 NW 22 28 12 15 994.5 994.2 0.6
16/11:00pm 11.6 6.7 6.9 73 2.3 NW 22 30 12 16 994.1 993.8 0.6
16/10:30pm 11.5 6.3 7.4 76 2.0 NW 24 32 13 17 993.5 993.2 0.6
16/10:00pm 11.9 6.9 8.2 78 1.9 NW 24 32 13 17 992.7 992.5 0.6
16/09:30pm 11.6 6.3 8.6 82 1.5 NNW 26 33 14 18 992.0 991.7 0.6
16/09:00pm 12.0 6.5 9.0 82 1.5 NNW 28 35 15 19 991.7 991.4 0.6
16/08:30pm 11.9 6.8 9.3 84 1.3 NNW 26 35 14 19 990.8 990.5 0.6
16/08:00pm 12.4 7.3 9.1 80 1.7 N 26 35 14 19 990.5 990.2 0.6
16/07:30pm 12.2 6.8 9.6 84 1.3 N 28 41 15 22 991.1 990.8 0.6
16/07:00pm 12.1 6.5 8.9 81 1.6 NW 28 41 15 22 990.8 990.5 0.6
16/06:30pm 15.9 8.1 9.6 66 3.3 NNW 41 59 22 32 990.0 989.7 0.0
16/06:03pm 16.4 9.4 11.1 71 2.9 NNW 39 57 21 31 989.7 989.4 0.0
16/06:00pm 16.3 8.3 10.6 69 3.1 NNW 43 57 23 31 989.8 989.5 0.0
16/05:30pm 16.1 9.1 10.0 67 3.2 NNW 37 50 20 27 989.1 988.8 0.0
16/05:00pm 17.3 10.5 10.7 65 3.6 NNW 37 52 20 28 988.8 988.5 0.0
16/04:33pm 17.5 9.4 12.0 70 3.0 NNW 46 65 25 35 989.0 988.7 0.0
16/04:30pm 17.6 9.0 11.8 69 3.2 NNW 48 65 26 35 989.0 988.7 0.0
16/04:05pm 19.7 10.8 13.2 66 3.7 NNW 52 74 28 40 987.9 987.6 0.0
16/04:00pm 21.3 13.3 14.7 66 3.9 NNW 50 63 27 34 987.7 987.4 0.0
16/03:39pm 21.4 14.7 13.3 60 4.7 NNW 41 59 22 32 987.4 987.0 0.0
16/03:30pm 22.4 17.4 15.0 63 4.4 NNW 35 48 19 26 987.6 987.3 0.0
16/03:00pm 22.1 16.5 15.5 66 4.0 NNW 39 57 21 31 988.2 987.9 0.0
16/02:30pm 21.3 13.5 14.2 64 4.2 NNW 48 65 26 35 989.2 988.9 0.0
16/02:00pm 21.6 16.3 15.2 67 3.9 NNW 37 50 20 27 989.0 988.7 0.0
16/01:30pm 20.6 14.5 15.2 71 3.2 NNW 41 54 22 29 989.6 989.3 0.0
16/01:14pm 22.7 16.5 15.0 61 4.6 NNW 41 59 22 32 989.5 989.2 0.0
16/01:00pm 22.8 16.0 14.4 59 5.0 NNW 43 57 23 31 989.5 989.2 0.0
16/12:30pm 25.6 20.3 16.2 56 5.8 N 39 54 21 29 989.8 989.5 0.0
16/12:00pm 25.5 20.9 15.2 53 6.3 N 33 50 18 27 990.3 990.0 0.0
16/11:59am 25.3 20.5 14.7 51 6.4 N 33 50 18 27 990.3 990.0 0.0
16/11:30am 22.6 20.1 13.4 56 5.4 NNW 19 28 10 15 991.2 990.9 0.0
16/11:00am 21.9 19.4 13.5 59 4.9 NNE 19 30 10 16 991.9 991.6 0.0
16/10:30am 23.4 20.9 13.6 54 5.7 NNE 19 28 10 15 992.3 992.0 0.0
16/10:00am 21.9 20.6 13.8 60 4.8 WNW 13 24 7 13 993.3 993.0 0.0
16/09:30am 19.1 17.1 12.6 66 3.7 SSW 15 20 8 11 994.1 993.8 0.0
16/09:00am 16.8 14.9 11.7 72 2.8 S 13 15 7 8 994.8 994.5 0.0
16/08:30am 16.1 14.1 11.5 74 2.5 S 13 17 7 9 995.2 994.9 0.0
16/08:00am 15.6 13.5 11.0 74 2.5 SSE 13 15 7 8 995.6 995.3 0.0
16/07:30am 14.2 12.8 10.8 80 1.8 SSE 9 11 5 6 996.0 995.7 0.0
16/07:00am 12.3 10.8 10.4 88 1.0 SSE 9 11 5 6 996.4 996.1 0.0
16/06:30am 10.4 8.6 9.5 94 0.5 SSE 9 13 5 7 997.3 997.0 0.0
16/06:00am 9.2 7.5 8.4 95 0.4 S 7 13 4 7 997.9 997.7 0.0
16/05:30am 9.0 6.8 7.9 93 0.5 SSE 9 9 5 5 998.0 997.8 0.0
16/05:00am 10.1 8.2 8.9 92 0.6 S 9 11 5 6 998.8 998.6 0.0
16/04:30am 10.1 8.2 8.9 92 0.6 SSE 9 13 5 7 999.6 999.3 0.0
16/04:00am 10.9 9.2 9.8 93 0.6 S 9 11 5 6 999.6 999.3 0.0
16/03:30am 10.4 9.9 9.5 94 0.5 WNW 2 6 1 3 1000.7 1000.4 0.0
16/03:00am 8.5 5.0 7.4 93 0.5 NNW 15 15 8 8 1001.2 1000.9 0.0
16/02:30am 9.5 8.2 7.6 88 0.9 WNW 4 7 2 4 1001.2 1000.9 0.0
16/02:00am 10.2 8.8 9.0 92 0.6 SSE 6 7 3 4 1001.3 1001.0 0.0
16/01:30am 10.2 8.8 8.8 91 0.7 SE 6 7 3 4 1001.6 1001.3 0.0
16/01:00am 11.2 10.0 9.5 89 0.9 SSE 6 6 3 3 1002.2 1001.9 0.0
16/12:30am 10.6 9.0 8.7 88 0.9 ESE 7 9 4 5 1002.6 1002.3 0.0
16/12:00am 10.9 9.2 8.5 85 1.2 NE 7 9 4 5 1003.6 1003.4 0.0
 
Date/Time
EDT
Temp
°C
App
Temp
°C
Dew
Point
Rel
Hum
%
Delta-T
°C
Wind Press
QNH
hPa
Press
MSL
hPa
Rain
since 9 am
mm
Dir
 
Spd
km/h
Gust
km/h
Spd
kts
Gust
kts
15/11:30pm 12.2 12.1 9.4 83 1.4 CALM 0 9 0 5 1004.1 1003.9 0.0
15/11:00pm 12.5 11.9 8.8 78 1.9 W 2 7 1 4 1004.5 1004.3 0.0
15/10:30pm 12.9 10.1 10.1 83 1.5 NW 15 17 8 9 1004.9 1004.7 0.0
15/10:00pm 12.9 10.7 9.4 79 1.8 NNW 11 13 6 7 1004.9 1004.7 0.0
15/09:30pm 13.0 10.3 9.1 77 2.0 NW 13 19 7 10 1005.2 1005.0 0.0
15/09:00pm 13.8 11.7 9.6 76 2.2 NNW 11 15 6 8 1005.0 1004.8 0.0
15/08:30pm 14.9 12.4 9.7 71 2.7 NNW 13 17 7 9 1005.1 1004.9 0.0
15/08:00pm 16.6 12.5 10.2 66 3.4 NNW 22 28 12 15 1005.1 1004.9 0.0
15/07:30pm 18.3 13.6 10.7 61 4.1 NW 26 35 14 19 1004.8 1004.6 0.0
15/07:00pm 19.3 13.6 9.8 54 5.1 NNW 30 41 16 22 1004.8 1004.6 0.0
15/06:30pm 20.3 14.8 10.7 54 5.3 NNW 30 37 16 20 1004.8 1004.6 0.0
15/06:00pm 21.5 15.7 11.5 53 5.6 NNW 33 41 18 22 1004.7 1004.5 0.0
15/05:30pm 21.9 16.7 10.4 48 6.3 NNW 28 35 15 19 1004.8 1004.6 0.0
15/05:00pm 22.7 17.2 10.5 46 6.8 NNW 30 39 16 21 1005.0 1004.8 0.0
15/04:30pm 22.9 16.9 10.7 46 6.8 NNW 33 41 18 22 1005.3 1005.1 0.0
15/04:00pm 23.5 17.7 10.9 45 7.1 NNW 32 41 17 22 1005.4 1005.2 0.0
15/03:30pm 23.8 17.7 10.5 43 7.4 NNW 33 43 18 23 1005.8 1005.5 0.0
15/03:00pm 23.8 16.9 6.6 33 9.0 NNW 32 43 17 23 1006.2 1005.9 0.0
15/02:30pm 24.4 19.0 8.0 35 8.8 NNW 26 37 14 20 1006.5 1006.2 0.0
15/02:00pm 23.4 17.4 8.7 39 7.9 NW 30 39 16 21 1006.8 1006.5 0.0
15/01:30pm 23.2 17.7 6.0 33 8.8 NNW 24 35 13 19 1007.1 1006.8 0.0
15/01:00pm 22.5 17.1 4.5 31 8.9 NNW 22 32 12 17 1007.4 1007.1 0.0
15/12:30pm 22.8 18.4 7.4 37 8.1 NNW 20 28 11 15 1007.6 1007.3 0.0
15/12:00pm 22.1 17.9 8.2 41 7.4 NW 20 35 11 19 1007.9 1007.7 0.0
15/11:30am 21.6 17.2 7.4 40 7.4 NNW 20 30 11 16 1008.1 1007.9 0.0
15/11:00am 21.2 16.4 8.8 45 6.6 NW 24 33 13 18 1008.3 1008.1 0.0
15/10:30am 20.2 15.8 7.6 44 6.5 NNW 20 32 11 17 1008.4 1008.2 0.0
15/10:00am 19.2 16.4 9.9 55 5.0 NW 15 22 8 12 1008.5 1008.3 0.0
15/09:30am 17.4 15.4 10.3 63 3.8 NNW 11 17 6 9 1008.6 1008.4 0.0
15/09:00am 16.3 15.1 10.4 68 3.2 NNW 7 13 4 7 1008.7 1008.5 0.0
15/08:30am 15.4 14.8 10.4 72 2.7 NNW 4 13 2 7 1008.8 1008.6 0.0
15/08:00am 14.7 14.7 11.3 80 1.8 NE 2 6 1 3 1008.6 1008.4 0.0
15/07:37am 13.6 12.4 10.4 81 1.7 ENE 7 9 4 5 1008.6 1008.4 0.0
15/07:30am 13.3 12.4 10.8 85 1.3 ENE 6 9 3 5 1008.5 1008.3 0.0
15/07:00am 12.9 12.1 11.0 88 1.0 ENE 6 7 3 4 1008.4 1008.2 0.0
15/06:51am 12.8 12.7 10.9 88 1.0 NE 2 7 1 4 1008.3 1008.1 0.0

Other Formats:

Comma delimited format used in spreadsheet applications
http://www.bom.gov.au/fwo/IDT60801/IDT60801.95966.axf

JavaScript Object Notation format (JSON) in row-major order
http://www.bom.gov.au/fwo/IDT60801/IDT60801.95966.json